Shoshone, California Weather observations

Data are for observation ending at time listed.
 Day   Time    Ave.   Ave.  Ave.  Vector   Max.   Stn.    Total    Solar   Ave.  
  of    of     Air    Rel.  Wind   Wind    Wind   Baro.  Precip.   Rad.    Soil  
Year   Day     Temp.  Hum.  Speed  Dir.    Gust   Pres.                    Temp. 
2014   (PST)    F      %     mph   deg.    mph     mb.     in.     W/m2     F   
------------------------------------------------------------------------------
 207   21:00   99.4    16    2.1   159     11.0    963     0.00       0    99999.0
 207   22:00   98.8    18    4.7   174      9.2    964     0.00       0    99999.0
 207   23:00   95.8    20    1.6   172      7.8    964     0.00       0    99999.0
 208    0:00   94.9    20    0.6   130      3.8    964     0.00       0    99999.0
 208    1:00   93.0    22    1.0   150      4.4    964     0.00       0    99999.0
 208    2:00   89.4    24    0.9   148      5.2    964     0.00       0    99999.0
 208    3:00   90.1    22    1.3    91      7.6    965     0.00       0    99999.0
 208    4:00   86.9    24    2.0    10      4.8    965     0.00       0    99999.0
 208    5:00   83.4    27    2.0    60      5.2    965     0.00       2    99999.0
 208    6:00   83.6    27    1.1    82      4.2    966     0.00      50    99999.0
 208    7:00   87.9    27    0.9    42      3.7    967     0.00     241    99999.0
 208    8:00   94.5    19    1.5    49      4.2    967     0.00     478    99999.0
 208    9:00   97.6    15    2.6   154      9.0    967     0.00     518    99999.0
 208   10:00   99.2    13    4.6   155     17.0    967     0.00     524    99999.0
 208   11:00   99.8    13   10.0   157     24.0    967     0.00     597    99999.0
 208   12:00  100.2    15   12.4   160     25.1    966     0.00     713    99999.0
 208   13:00  102.8    17    9.6   166     21.9    966     0.00     897    99999.0
 208   14:00  105.2    16    6.2   163     17.7    966     0.00     903    99999.0
 208   15:00  106.8    15    4.4   150     13.5    964     0.00     818    99999.0
 208   16:00  106.6    15    4.8   162     14.6    964     0.00     620    99999.0
 208   17:00  105.4    16    9.9    93     24.8    964     0.00     448    99999.0
 208   18:00   98.7    19   15.2    87     26.9    964     0.00      94    99999.0
 208   19:00   97.2    19    7.6    92     23.2    965     0.00       9    99999.0
 208   20:00   93.2    25    4.5    83     18.6    966     0.00       0    99999.0

Return to Shoshone, California graphs page.


Western Regional Climate Center,wrcc@dri.edu